sensor_id;sensor_type;location;lat;lon;timestamp;P1;durP1;ratioP1;P2;durP2;ratioP2
46863;SDS011;32598;50.204;6.408;2024-02-23T22:04:02;6.85;;;3.92;;
46863;SDS011;32598;50.204;6.408;2024-02-23T22:06:27;5.90;;;3.30;;
46863;SDS011;32598;50.204;6.408;2024-02-23T22:08:53;9.23;;;4.60;;
46863;SDS011;32598;50.204;6.408;2024-02-23T22:11:18;9.03;;;4.53;;
46863;SDS011;32598;50.204;6.408;2024-02-23T22:13:43;8.63;;;5.28;;
46863;SDS011;32598;50.204;6.408;2024-02-23T22:16:08;8.80;;;5.00;;
46863;SDS011;32598;50.204;6.408;2024-02-23T22:18:34;8.60;;;6.15;;
46863;SDS011;32598;50.204;6.408;2024-02-23T22:20:59;11.35;;;6.70;;
46863;SDS011;32598;50.204;6.408;2024-02-23T22:23:25;14.18;;;8.00;;
46863;SDS011;32598;50.204;6.408;2024-02-23T22:25:51;8.82;;;6.53;;
46863;SDS011;32598;50.204;6.408;2024-02-23T22:28:16;12.23;;;7.53;;
46863;SDS011;32598;50.204;6.408;2024-02-23T22:30:41;11.53;;;7.53;;
46863;SDS011;32598;50.204;6.408;2024-02-23T22:33:06;12.55;;;7.63;;
46863;SDS011;32598;50.204;6.408;2024-02-23T22:35:32;11.30;;;6.68;;
46863;SDS011;32598;50.204;6.408;2024-02-23T22:37:57;9.60;;;6.25;;
46863;SDS011;32598;50.204;6.408;2024-02-23T22:40:23;8.70;;;5.53;;
46863;SDS011;32598;50.204;6.408;2024-02-23T22:42:48;9.60;;;4.82;;
46863;SDS011;32598;50.204;6.408;2024-02-23T22:45:13;8.63;;;5.22;;
46863;SDS011;32598;50.204;6.408;2024-02-23T22:47:39;7.85;;;4.38;;
46863;SDS011;32598;50.204;6.408;2024-02-23T22:50:04;5.50;;;2.72;;
46863;SDS011;32598;50.204;6.408;2024-02-23T22:52:29;4.85;;;2.58;;
46863;SDS011;32598;50.204;6.408;2024-02-23T22:54:55;4.88;;;2.30;;
46863;SDS011;32598;50.204;6.408;2024-02-23T22:57:20;5.53;;;2.40;;
46863;SDS011;32598;50.204;6.408;2024-02-23T22:59:45;7.45;;;2.70;;
46863;SDS011;32598;50.204;6.408;2024-02-23T23:02:10;5.15;;;2.45;;
46863;SDS011;32598;50.204;6.408;2024-02-23T23:04:36;5.10;;;2.05;;
46863;SDS011;32598;50.204;6.408;2024-02-23T23:07:01;4.90;;;2.33;;
46863;SDS011;32598;50.204;6.408;2024-02-23T23:09:26;4.18;;;2.17;;
46863;SDS011;32598;50.204;6.408;2024-02-23T23:11:51;5.28;;;1.90;;
46863;SDS011;32598;50.204;6.408;2024-02-23T23:14:16;4.78;;;2.10;;
46863;SDS011;32598;50.204;6.408;2024-02-23T23:16:41;4.40;;;2.10;;
46863;SDS011;32598;50.204;6.408;2024-02-23T23:19:07;6.33;;;2.60;;
46863;SDS011;32598;50.204;6.408;2024-02-23T23:21:32;4.82;;;2.47;;
46863;SDS011;32598;50.204;6.408;2024-02-23T23:23:58;6.30;;;2.70;;
46863;SDS011;32598;50.204;6.408;2024-02-23T23:26:23;6.25;;;2.50;;
46863;SDS011;32598;50.204;6.408;2024-02-23T23:28:49;5.18;;;2.63;;
46863;SDS011;32598;50.204;6.408;2024-02-23T23:31:14;5.75;;;2.95;;
46863;SDS011;32598;50.204;6.408;2024-02-23T23:33:40;4.30;;;2.50;;
46863;SDS011;32598;50.204;6.408;2024-02-23T23:36:05;5.30;;;2.90;;
46863;SDS011;32598;50.204;6.408;2024-02-23T23:38:31;5.30;;;3.13;;
46863;SDS011;32598;50.204;6.408;2024-02-23T23:40:56;5.53;;;3.53;;
46863;SDS011;32598;50.204;6.408;2024-02-23T23:43:21;5.80;;;3.42;;
46863;SDS011;32598;50.204;6.408;2024-02-23T23:45:47;5.65;;;3.35;;
46863;SDS011;32598;50.204;6.408;2024-02-23T23:48:12;5.68;;;3.53;;
46863;SDS011;32598;50.204;6.408;2024-02-23T23:50:37;6.13;;;3.70;;
46863;SDS011;32598;50.204;6.408;2024-02-23T23:53:03;6.32;;;3.63;;
46863;SDS011;32598;50.204;6.408;2024-02-23T23:55:28;7.07;;;4.10;;
46863;SDS011;32598;50.204;6.408;2024-02-23T23:57:53;6.45;;;4.10;;
